createdAt,value
2018-10-09T00:00:54.080Z,95.50
2018-10-09T00:03:21.255Z,95.70
2018-10-09T00:05:48.581Z,95.60
2018-10-09T00:08:15.867Z,95.70
2018-10-09T00:10:43.108Z,95.60
2018-10-09T00:13:10.476Z,95.90
2018-10-09T00:15:37.713Z,95.80
2018-10-09T00:18:04.974Z,95.80
2018-10-09T00:20:32.306Z,96.00
2018-10-09T00:23:00.376Z,95.80
2018-10-09T00:25:27.603Z,95.80
2018-10-09T00:27:55.678Z,95.80
2018-10-09T00:30:23.539Z,95.90
2018-10-09T00:32:50.755Z,96.10
2018-10-09T00:35:18.806Z,96.30
2018-10-09T00:37:46.218Z,96.50
2018-10-09T00:40:13.803Z,96.50
2018-10-09T00:42:41.143Z,96.40
2018-10-09T00:45:08.407Z,96.50
2018-10-09T00:47:35.696Z,96.50
2018-10-09T00:50:03.104Z,96.80
2018-10-09T00:52:30.599Z,96.40
2018-10-09T00:54:57.936Z,96.70
2018-10-09T00:57:25.294Z,96.40
2018-10-09T00:59:52.522Z,96.00
2018-10-09T01:02:19.770Z,96.00
2018-10-09T01:04:47.047Z,96.10
2018-10-09T01:07:14.315Z,95.80
2018-10-09T01:09:41.543Z,96.10
2018-10-09T01:12:08.893Z,96.30
2018-10-09T01:14:36.137Z,96.10
2018-10-09T01:17:03.437Z,96.20
2018-10-09T01:19:30.802Z,96.10
2018-10-09T01:21:58.115Z,96.20
2018-10-09T01:24:25.344Z,96.20
2018-10-09T01:26:52.735Z,96.40
2018-10-09T01:29:20.562Z,96.50
2018-10-09T01:31:47.784Z,96.50
2018-10-09T01:34:15.328Z,96.70
2018-10-09T01:36:42.536Z,96.70
2018-10-09T01:39:10.240Z,96.60
2018-10-09T01:41:37.578Z,96.70
2018-10-09T01:44:04.906Z,96.70
2018-10-09T01:46:32.133Z,96.70
2018-10-09T01:48:59.475Z,96.50
2018-10-09T01:51:26.736Z,96.50
2018-10-09T01:53:54.210Z,96.50
2018-10-09T01:56:21.556Z,96.60
2018-10-09T01:58:48.906Z,96.70
2018-10-09T02:01:16.138Z,96.60
2018-10-09T02:03:43.470Z,96.60
2018-10-09T02:06:10.679Z,96.60
2018-10-09T02:08:38.250Z,96.70
2018-10-09T02:11:05.691Z,96.70
2018-10-09T02:13:32.932Z,96.70
2018-10-09T02:16:00.174Z,96.80
2018-10-09T02:18:27.501Z,96.90
2018-10-09T02:20:54.750Z,97.00
2018-10-09T02:23:22.010Z,97.00
2018-10-09T02:25:49.358Z,97.00
2018-10-09T02:28:16.560Z,97.00
2018-10-09T02:30:43.796Z,96.90
2018-10-09T02:33:11.130Z,97.10
2018-10-09T02:35:38.511Z,97.40
2018-10-09T02:38:05.991Z,97.40
2018-10-09T02:40:33.251Z,97.60
2018-10-09T02:43:00.493Z,97.60
2018-10-09T02:45:27.713Z,97.50
2018-10-09T02:47:55.293Z,97.50
2018-10-09T02:50:22.599Z,97.60
2018-10-09T02:52:49.823Z,97.70
2018-10-09T02:55:17.172Z,97.70
2018-10-09T02:57:44.431Z,97.60
2018-10-09T03:00:11.663Z,97.70
2018-10-09T03:02:39.003Z,98.00
2018-10-09T03:05:06.651Z,97.90
2018-10-09T03:07:33.873Z,98.10
2018-10-09T03:10:01.215Z,97.90
2018-10-09T03:12:28.521Z,97.80
2018-10-09T03:14:55.829Z,97.90
2018-10-09T03:17:23.205Z,98.00
2018-10-09T03:19:50.486Z,97.90
2018-10-09T03:22:17.719Z,98.00
2018-10-09T03:24:44.988Z,97.90
2018-10-09T03:27:12.274Z,97.90
2018-10-09T03:29:39.514Z,97.70
2018-10-09T03:32:06.952Z,97.90
2018-10-09T03:34:34.166Z,97.90
2018-10-09T03:37:01.411Z,97.90
2018-10-09T03:39:28.779Z,97.70
2018-10-09T03:41:56.135Z,97.70
2018-10-09T03:44:23.451Z,97.60
2018-10-09T03:46:50.805Z,97.50
2018-10-09T03:49:18.052Z,97.50
2018-10-09T03:51:45.574Z,97.60
2018-10-09T03:54:12.906Z,97.60
2018-10-09T03:56:40.127Z,97.70
2018-10-09T03:59:07.371Z,97.70
2018-10-09T04:01:34.680Z,97.60
2018-10-09T04:04:01.922Z,97.60
2018-10-09T04:06:29.266Z,98.10
2018-10-09T04:08:56.602Z,97.70
2018-10-09T04:11:23.804Z,97.90
2018-10-09T04:13:51.044Z,98.00
2018-10-09T04:16:18.337Z,98.30
2018-10-09T04:18:45.575Z,97.90
2018-10-09T04:21:13.008Z,97.90
2018-10-09T04:23:40.368Z,97.90
2018-10-09T04:26:08.154Z,98.00
2018-10-09T04:28:35.433Z,97.90
2018-10-09T04:31:02.760Z,98.00
2018-10-09T04:33:29.966Z,98.20
2018-10-09T04:35:57.254Z,98.10
2018-10-09T04:38:24.593Z,98.20
2018-10-09T04:40:51.867Z,98.20
2018-10-09T04:43:19.102Z,98.30
2018-10-09T04:45:46.469Z,98.20
2018-10-09T04:48:13.746Z,98.10
2018-10-09T04:50:40.982Z,98.00
2018-10-09T04:53:08.370Z,98.10
2018-10-09T04:55:35.562Z,98.10
2018-10-09T04:58:02.785Z,98.10
2018-10-09T05:00:30.179Z,98.20
2018-10-09T05:02:57.427Z,98.20
2018-10-09T05:05:24.801Z,98.30
2018-10-09T05:07:52.137Z,98.30
2018-10-09T05:10:19.368Z,98.50
2018-10-09T05:12:46.593Z,98.60
2018-10-09T05:15:13.951Z,98.60
2018-10-09T05:17:41.301Z,98.70
2018-10-09T05:20:09.533Z,98.80
2018-10-09T05:22:36.964Z,98.80
2018-10-09T05:25:04.230Z,98.70
2018-10-09T05:27:31.467Z,98.60
2018-10-09T05:29:58.840Z,98.70
2018-10-09T05:32:26.092Z,98.80
2018-10-09T05:34:53.910Z,98.80
2018-10-09T05:37:21.359Z,99.10
2018-10-09T05:39:48.610Z,99.00
2018-10-09T05:42:15.880Z,99.00
2018-10-09T05:44:43.300Z,99.00
2018-10-09T05:47:10.731Z,99.10
2018-10-09T05:49:38.062Z,99.00
2018-10-09T05:52:06.833Z,99.00
2018-10-09T05:54:34.084Z,99.10
2018-10-09T05:57:01.391Z,99.10
2018-10-09T05:59:28.772Z,99.10
2018-10-09T06:01:56.385Z,99.00
2018-10-09T06:04:23.618Z,99.00
2018-10-09T06:06:51.619Z,99.00
2018-10-09T06:09:18.841Z,99.10
2018-10-09T06:11:46.090Z,99.20
2018-10-09T06:14:13.427Z,99.30
2018-10-09T06:16:40.873Z,99.30
2018-10-09T06:19:08.122Z,99.20
2018-10-09T06:21:35.478Z,99.20
2018-10-09T06:24:02.827Z,99.20
2018-10-09T06:26:30.072Z,99.20
2018-10-09T06:28:57.527Z,99.50
2018-10-09T06:31:24.910Z,99.20
2018-10-09T06:33:52.200Z,99.20
2018-10-09T06:36:19.498Z,99.10
2018-10-09T06:38:46.750Z,99.10
2018-10-09T06:41:13.979Z,99.10
2018-10-09T06:43:41.313Z,99.00
2018-10-09T06:46:08.565Z,98.90
2018-10-09T06:48:35.829Z,98.70
2018-10-09T06:51:03.247Z,98.60
2018-10-09T06:53:31.255Z,98.50
2018-10-09T06:55:58.605Z,98.30
2018-10-09T06:58:25.991Z,98.20
2018-10-09T07:00:53.254Z,98.20
2018-10-09T07:03:20.501Z,98.20
2018-10-09T07:05:47.894Z,98.40
2018-10-09T07:08:15.127Z,98.10
2018-10-09T07:10:42.393Z,98.20
2018-10-09T07:13:09.808Z,98.30
2018-10-09T07:15:37.067Z,98.30
2018-10-09T07:18:04.487Z,98.20
2018-10-09T07:20:31.969Z,98.40
2018-10-09T07:22:59.263Z,98.40
2018-10-09T07:25:26.512Z,98.40
2018-10-09T07:27:53.962Z,98.20
2018-10-09T07:30:21.197Z,98.40
2018-10-09T07:32:48.556Z,98.40
2018-10-09T07:35:15.927Z,98.20
2018-10-09T07:37:43.249Z,98.10
2018-10-09T07:40:10.470Z,98.10
2018-10-09T07:42:37.944Z,97.90
2018-10-09T07:45:05.215Z,97.60
2018-10-09T07:47:32.488Z,97.50
2018-10-09T07:49:59.856Z,97.30
2018-10-09T07:52:27.236Z,97.10
2018-10-09T07:54:54.626Z,97.20
2018-10-09T07:57:22.047Z,97.20
2018-10-09T07:59:49.425Z,97.30
2018-10-09T08:02:16.757Z,97.00
2018-10-09T08:04:44.088Z,97.00
2018-10-09T08:07:11.336Z,97.00
2018-10-09T08:09:38.606Z,97.30
2018-10-09T08:12:06.036Z,96.60
2018-10-09T08:14:33.282Z,96.40
2018-10-09T08:17:00.526Z,96.20
2018-10-09T08:19:27.947Z,96.00
2018-10-09T08:21:55.187Z,96.00
2018-10-09T08:24:22.478Z,95.30
2018-10-09T08:26:50.182Z,95.40
2018-10-09T08:29:17.232Z,95.90
2018-10-09T08:31:44.704Z,95.60
2018-10-09T08:34:12.067Z,95.30
2018-10-09T08:36:39.308Z,95.30
2018-10-09T08:39:06.906Z,94.70
2018-10-09T08:41:34.483Z,94.70
2018-10-09T08:44:01.900Z,94.90
2018-10-09T08:46:29.157Z,94.90
2018-10-09T08:48:56.512Z,94.60
2018-10-09T08:51:23.752Z,93.80
2018-10-09T08:53:50.987Z,93.80
2018-10-09T08:56:18.380Z,93.50
2018-10-09T08:58:45.730Z,93.10
2018-10-09T09:01:13.014Z,92.40
2018-10-09T09:03:40.448Z,92.80
2018-10-09T09:06:07.643Z,92.60
2018-10-09T09:08:34.912Z,91.70
2018-10-09T09:11:02.283Z,91.80
2018-10-09T09:13:30.153Z,92.00
2018-10-09T09:15:57.612Z,91.80
2018-10-09T09:18:24.975Z,91.90
2018-10-09T09:20:52.300Z,92.40
2018-10-09T09:23:19.485Z,92.20
2018-10-09T09:25:46.804Z,91.60
2018-10-09T09:28:14.043Z,91.00
2018-10-09T09:30:41.315Z,91.60
2018-10-09T09:33:08.722Z,91.00
2018-10-09T09:35:35.986Z,91.40
2018-10-09T09:38:03.256Z,90.50
2018-10-09T09:40:30.612Z,91.00
2018-10-09T09:42:57.880Z,91.00
2018-10-09T09:45:25.173Z,90.30
2018-10-09T09:47:52.444Z,90.60
2018-10-09T09:50:19.712Z,90.20
2018-10-09T09:52:46.955Z,90.60
2018-10-09T09:55:14.385Z,89.90
2018-10-09T09:57:41.624Z,90.10
2018-10-09T10:00:14.433Z,89.50
2018-10-09T10:02:41.722Z,90.10
2018-10-09T10:05:08.992Z,88.70
2018-10-09T10:07:36.342Z,89.90
2018-10-09T10:10:03.811Z,90.20
2018-10-09T10:12:31.509Z,90.00
2018-10-09T10:14:58.883Z,89.50
2018-10-09T10:17:26.165Z,90.10
2018-10-09T10:19:53.436Z,90.00
2018-10-09T10:22:20.791Z,90.40
2018-10-09T10:24:48.042Z,90.70
2018-10-09T10:27:15.326Z,90.60
2018-10-09T10:29:42.915Z,90.50
2018-10-09T10:32:10.207Z,90.30
2018-10-09T10:34:37.463Z,90.50
2018-10-09T10:37:05.087Z,90.30
2018-10-09T10:39:32.349Z,90.40
2018-10-09T10:41:59.680Z,90.70
2018-10-09T10:44:27.027Z,90.80
2018-10-09T10:46:54.289Z,91.10
2018-10-09T10:49:21.561Z,90.50
2018-10-09T10:51:49.469Z,90.30
2018-10-09T10:54:16.753Z,90.30
2018-10-09T10:56:44.082Z,90.60
2018-10-09T10:59:12.355Z,90.50
2018-10-09T11:01:39.747Z,90.90
2018-10-09T11:04:07.059Z,90.00
2018-10-09T11:06:34.527Z,90.50
2018-10-09T11:09:01.832Z,90.20
2018-10-09T11:11:29.071Z,90.40
2018-10-09T11:13:56.384Z,90.80
2018-10-09T11:16:23.635Z,91.00
2018-10-09T11:18:50.943Z,90.90
2018-10-09T11:21:18.506Z,90.80
2018-10-09T11:23:45.639Z,90.40
2018-10-09T11:26:12.942Z,89.70
2018-10-09T11:28:40.233Z,90.00
2018-10-09T11:31:07.552Z,90.80
2018-10-09T11:33:34.804Z,90.10
2018-10-09T11:36:02.187Z,90.20
2018-10-09T11:38:29.884Z,90.20
2018-10-09T11:40:57.158Z,90.30
2018-10-09T11:43:24.516Z,88.90
2018-10-09T11:45:51.767Z,89.80
2018-10-09T11:48:19.028Z,90.30
2018-10-09T11:50:46.387Z,90.20
2018-10-09T11:53:13.695Z,88.50
2018-10-09T11:56:14.222Z,89.50
2018-10-09T11:58:41.903Z,89.40
2018-10-09T12:01:09.599Z,90.00
2018-10-09T12:03:37.210Z,90.20
2018-10-09T12:06:06.648Z,90.10
2018-10-09T12:08:34.227Z,89.80
2018-10-09T12:11:01.871Z,90.20
2018-10-09T12:13:29.183Z,90.30
2018-10-09T12:15:56.685Z,90.10
2018-10-09T12:18:23.912Z,89.30
2018-10-09T12:20:51.195Z,89.30
2018-10-09T12:23:18.565Z,90.50
2018-10-09T12:25:45.806Z,88.50
2018-10-09T12:28:13.179Z,89.80
2018-10-09T12:30:40.640Z,89.70
2018-10-09T12:33:07.945Z,90.00
2018-10-09T12:35:35.214Z,89.50
2018-10-09T12:38:02.591Z,90.20
2018-10-09T12:40:29.836Z,90.30
2018-10-09T12:42:57.138Z,90.20
2018-10-09T12:45:24.547Z,90.40
2018-10-09T12:47:51.831Z,90.50
2018-10-09T12:50:19.102Z,90.00
2018-10-09T12:52:46.615Z,90.30
2018-10-09T12:55:13.889Z,90.60
2018-10-09T12:57:46.996Z,90.40
2018-10-09T13:00:14.282Z,90.40
2018-10-09T13:02:41.631Z,90.60
2018-10-09T13:05:09.021Z,91.30
2018-10-09T13:07:36.294Z,91.20
2018-10-09T13:10:03.692Z,91.10
2018-10-09T13:12:31.348Z,91.40
2018-10-09T13:14:58.620Z,91.50
2018-10-09T13:17:25.899Z,91.40
2018-10-09T13:19:53.279Z,91.60
2018-10-09T13:22:20.904Z,91.00
2018-10-09T13:24:47.847Z,91.30
2018-10-09T13:27:15.308Z,91.70
2018-10-09T13:29:42.535Z,91.50
2018-10-09T13:32:10.668Z,91.20
2018-10-09T13:34:38.218Z,91.20
2018-10-09T13:37:05.460Z,91.50
2018-10-09T13:39:32.715Z,91.50
2018-10-09T13:42:00.191Z,91.80
2018-10-09T13:44:27.436Z,92.00
2018-10-09T13:46:55.068Z,92.70
2018-10-09T13:49:22.494Z,92.10
2018-10-09T13:51:49.791Z,92.10
2018-10-09T13:54:17.085Z,92.00
2018-10-09T13:56:44.520Z,91.60
2018-10-09T13:59:11.749Z,91.60
2018-10-09T14:01:38.998Z,91.50
2018-10-09T14:04:06.677Z,91.80
2018-10-09T14:06:33.954Z,92.10
2018-10-09T14:09:01.276Z,92.30
2018-10-09T14:11:28.650Z,92.00
2018-10-09T14:13:55.931Z,92.50
2018-10-09T14:16:23.251Z,92.20
2018-10-09T14:18:51.220Z,92.30
2018-10-09T14:21:18.495Z,92.50
2018-10-09T14:23:45.760Z,92.90
2018-10-09T14:26:13.207Z,92.40
2018-10-09T14:28:40.466Z,92.40
2018-10-09T14:31:07.830Z,92.60
2018-10-09T14:33:35.137Z,92.60
2018-10-09T14:36:02.410Z,92.90
2018-10-09T14:38:29.650Z,93.20
2018-10-09T14:40:57.011Z,93.60
2018-10-09T14:43:24.274Z,93.50
2018-10-09T14:45:51.521Z,93.90
2018-10-09T14:48:18.893Z,93.90
2018-10-09T14:50:46.135Z,94.00
2018-10-09T14:53:13.452Z,94.00
2018-10-09T14:55:40.825Z,94.00
2018-10-09T14:58:08.124Z,93.90
2018-10-09T15:00:35.389Z,94.10
2018-10-09T15:03:02.772Z,94.20
2018-10-09T15:05:30.037Z,94.40
2018-10-09T15:07:57.274Z,94.40
2018-10-09T15:10:24.694Z,94.90
2018-10-09T15:12:51.943Z,94.90
2018-10-09T15:15:19.190Z,94.80
2018-10-09T15:17:46.567Z,94.90
2018-10-09T15:20:14.640Z,95.10
2018-10-09T15:22:42.016Z,95.10
2018-10-09T15:25:09.445Z,95.10
2018-10-09T15:27:36.717Z,95.30
2018-10-09T15:30:04.007Z,95.60
2018-10-09T15:32:31.344Z,95.60
2018-10-09T15:34:58.639Z,95.80
2018-10-09T15:37:25.918Z,96.00
2018-10-09T15:39:53.239Z,96.20
2018-10-09T15:42:20.500Z,96.10
2018-10-09T15:44:47.787Z,96.00
2018-10-09T15:47:15.511Z,96.10
2018-10-09T15:49:42.724Z,96.20
2018-10-09T15:52:10.376Z,96.20
2018-10-09T15:54:37.804Z,96.50
2018-10-09T15:57:05.060Z,96.60
2018-10-09T15:59:32.363Z,96.50
2018-10-09T16:01:59.860Z,96.70
2018-10-09T16:04:27.225Z,97.10
2018-10-09T16:06:54.491Z,97.10
2018-10-09T16:09:21.869Z,97.30
2018-10-09T16:11:49.725Z,97.40
2018-10-09T16:14:17.282Z,97.60
2018-10-09T16:16:44.611Z,97.50
2018-10-09T16:19:11.847Z,97.60
2018-10-09T16:21:39.598Z,97.80
2018-10-09T16:24:07.112Z,97.80
2018-10-09T16:26:34.403Z,97.80
2018-10-09T16:29:01.614Z,98.00
2018-10-09T16:31:29.026Z,98.20
2018-10-09T16:33:56.411Z,98.40
2018-10-09T16:36:23.738Z,98.40
2018-10-09T16:38:51.167Z,98.30
2018-10-09T16:41:18.474Z,98.20
2018-10-09T16:43:45.760Z,98.20
2018-10-09T16:46:13.134Z,98.20
2018-10-09T16:48:40.461Z,98.20
2018-10-09T16:51:07.741Z,98.20
2018-10-09T16:53:35.221Z,98.20
2018-10-09T16:56:02.583Z,98.40
2018-10-09T16:58:30.018Z,98.60
2018-10-09T17:00:57.387Z,98.70
2018-10-09T17:03:24.631Z,98.70
2018-10-09T17:05:52.078Z,98.70
2018-10-09T17:08:19.719Z,98.80
2018-10-09T17:10:46.952Z,98.90
2018-10-09T17:13:14.224Z,99.00
2018-10-09T17:15:41.683Z,99.20
2018-10-09T17:18:08.999Z,99.50
2018-10-09T17:20:36.346Z,99.60
2018-10-09T17:23:03.726Z,99.60
2018-10-09T17:25:31.044Z,99.40
2018-10-09T17:27:58.771Z,99.20
2018-10-09T17:30:26.811Z,99.00
2018-10-09T17:32:54.126Z,99.00
2018-10-09T17:35:21.519Z,99.00
2018-10-09T17:37:48.867Z,99.10
2018-10-09T17:40:16.239Z,99.20
2018-10-09T17:42:43.608Z,99.30
2018-10-09T17:45:11.088Z,99.50
2018-10-09T17:47:38.440Z,99.70
2018-10-09T17:50:06.153Z,99.80
2018-10-09T17:52:33.572Z,99.90
2018-10-09T17:55:01.095Z,99.90
2018-10-09T17:57:28.779Z,99.90
2018-10-09T17:59:56.150Z,99.90
2018-10-09T18:02:23.594Z,99.90
2018-10-09T18:04:50.848Z,99.90
2018-10-09T18:07:18.239Z,99.90
2018-10-09T18:09:45.527Z,99.90
2018-10-09T18:12:12.799Z,99.90
2018-10-09T18:14:40.299Z,99.90
2018-10-09T18:17:07.703Z,99.90
2018-10-09T18:19:35.053Z,99.90
2018-10-09T18:22:02.617Z,99.90
2018-10-09T18:24:30.059Z,99.90
2018-10-09T18:26:57.468Z,99.90
2018-10-09T18:29:24.971Z,99.90
2018-10-09T18:31:52.319Z,99.90
2018-10-09T18:34:19.780Z,99.90
2018-10-09T18:36:47.239Z,99.90
2018-10-09T18:39:15.613Z,99.90
2018-10-09T18:41:44.223Z,99.90
2018-10-09T18:44:11.603Z,99.90
2018-10-09T18:46:39.008Z,99.90
2018-10-09T18:49:06.668Z,99.90
2018-10-09T18:51:34.297Z,99.90
2018-10-09T18:54:03.663Z,99.90
2018-10-09T18:56:31.024Z,99.90
2018-10-09T18:58:58.839Z,99.90
2018-10-09T19:01:27.524Z,99.90
2018-10-09T19:03:54.950Z,99.90
2018-10-09T19:06:22.841Z,99.90
2018-10-09T19:08:50.441Z,99.90
2018-10-09T19:11:21.489Z,99.90
2018-10-09T19:13:51.357Z,99.90
2018-10-09T19:16:18.762Z,99.90
2018-10-09T19:18:46.536Z,99.90
2018-10-09T19:21:14.279Z,99.90
2018-10-09T19:23:43.133Z,99.90
2018-10-09T19:26:12.791Z,99.90
2018-10-09T19:28:41.318Z,99.90
2018-10-09T19:31:09.620Z,99.90
2018-10-09T19:33:37.060Z,99.90
2018-10-09T19:36:04.594Z,99.90
2018-10-09T19:38:31.916Z,99.90
2018-10-09T19:40:59.320Z,99.90
2018-10-09T19:43:26.796Z,99.90
2018-10-09T19:45:54.115Z,99.90
2018-10-09T19:48:21.512Z,99.90
2018-10-09T19:50:49.062Z,99.90
2018-10-09T19:53:16.347Z,99.90
2018-10-09T19:55:43.697Z,99.90
2018-10-09T19:58:11.243Z,99.90
2018-10-09T20:00:38.675Z,99.90
2018-10-09T20:03:06.421Z,99.90
2018-10-09T20:05:33.814Z,99.90
2018-10-09T20:08:01.273Z,99.90
2018-10-09T20:10:28.690Z,99.90
2018-10-09T20:12:57.090Z,99.90
2018-10-09T20:15:24.437Z,99.90
2018-10-09T20:17:51.838Z,99.90
2018-10-09T20:20:19.288Z,99.90
2018-10-09T20:22:46.611Z,99.90
2018-10-09T20:25:14.077Z,99.90
2018-10-09T20:27:41.621Z,99.90
2018-10-09T20:30:08.898Z,99.90
2018-10-09T20:32:36.179Z,99.90
2018-10-09T20:35:03.639Z,99.90
2018-10-09T20:37:30.915Z,99.90
2018-10-09T20:40:04.939Z,99.90
2018-10-09T20:42:32.219Z,99.90
2018-10-09T20:44:59.513Z,99.90
2018-10-09T20:47:32.723Z,99.90
2018-10-09T20:50:00.112Z,99.90
2018-10-09T20:52:27.409Z,99.90
2018-10-09T20:54:54.799Z,99.90
2018-10-09T20:57:22.409Z,99.90
2018-10-09T20:59:49.662Z,99.90
2018-10-09T21:02:16.944Z,99.90
2018-10-09T21:04:44.282Z,99.90
2018-10-09T21:07:11.580Z,99.90
2018-10-09T21:09:38.996Z,99.90
2018-10-09T21:12:06.414Z,99.90
2018-10-09T21:14:33.731Z,99.90
2018-10-09T21:17:01.095Z,99.90
2018-10-09T21:19:28.319Z,99.90
2018-10-09T21:21:55.784Z,99.90
2018-10-09T21:24:23.112Z,99.90
2018-10-09T21:26:50.363Z,99.90
2018-10-09T21:29:17.629Z,99.90
2018-10-09T21:31:45.014Z,99.90
2018-10-09T21:34:12.329Z,99.90
2018-10-09T21:36:39.617Z,99.90
2018-10-09T21:39:07.476Z,99.90
2018-10-09T21:41:34.717Z,99.90
2018-10-09T21:44:02.202Z,99.90
2018-10-09T21:46:29.572Z,99.90
2018-10-09T21:48:56.866Z,99.90
2018-10-09T21:51:24.127Z,99.90
2018-10-09T21:53:51.504Z,99.90
2018-10-09T21:56:18.818Z,99.90
2018-10-09T21:58:46.106Z,99.90
2018-10-09T22:01:13.528Z,99.90
2018-10-09T22:03:41.341Z,99.90
2018-10-09T22:06:09.179Z,99.90
2018-10-09T22:08:36.536Z,99.90
2018-10-09T22:11:03.776Z,99.90
2018-10-09T22:13:31.054Z,99.90
2018-10-09T22:15:58.396Z,99.90
2018-10-09T22:18:25.689Z,99.90
2018-10-09T22:20:52.942Z,99.90
2018-10-09T22:23:20.459Z,99.90
2018-10-09T22:25:47.732Z,99.90
2018-10-09T22:28:14.970Z,99.90
2018-10-09T22:30:42.335Z,99.90
2018-10-09T22:33:09.634Z,99.90
2018-10-09T22:35:37.028Z,99.90
2018-10-09T22:38:04.488Z,99.90
2018-10-09T22:40:31.829Z,99.90
2018-10-09T22:42:59.129Z,99.90
2018-10-09T22:45:26.538Z,99.90
2018-10-09T22:47:53.802Z,99.90
2018-10-09T22:50:21.292Z,99.90
2018-10-09T22:52:48.712Z,99.90
2018-10-09T22:55:15.979Z,99.90
2018-10-09T22:57:43.281Z,99.90
2018-10-09T23:00:10.769Z,99.90
2018-10-09T23:02:38.123Z,99.90
2018-10-09T23:05:05.501Z,99.90
2018-10-09T23:07:32.966Z,99.90
2018-10-09T23:10:00.485Z,99.90
2018-10-09T23:12:27.782Z,99.90
2018-10-09T23:14:55.121Z,99.90
2018-10-09T23:17:22.486Z,99.90
2018-10-09T23:19:49.793Z,99.90
2018-10-09T23:22:17.235Z,99.90
2018-10-09T23:24:44.487Z,99.90
2018-10-09T23:27:11.771Z,99.90
2018-10-09T23:29:39.177Z,99.90
2018-10-09T23:32:06.576Z,99.90
2018-10-09T23:34:33.884Z,99.90
2018-10-09T23:37:01.220Z,99.90
2018-10-09T23:39:28.503Z,99.90
2018-10-09T23:41:55.802Z,99.90
2018-10-09T23:44:23.382Z,99.90
2018-10-09T23:46:50.687Z,99.90
2018-10-09T23:49:18.043Z,99.90
2018-10-09T23:51:45.413Z,99.90
2018-10-09T23:54:12.694Z,99.90
2018-10-09T23:56:39.999Z,99.90
2018-10-09T23:59:07.357Z,99.90
